Time;durP1;ratioP1;P1;durP2;ratioP2;P2;SDS_P1;SDS_P2;PMS_P1;PMS_P2;Temp;Humidity;BMP_temperature;BMP_pressure;BME280_temperature;BME280_humidity;BME280_pressure;Samples;Min_cycle;Max_cycle;Signal;HPM_P1;HPM_P2
2022/10/23 00:01:27;;;;;;;8.68;6.10;;;;;;;15.01;67.27;99975.19;4444069;32;33786;-66
2022/10/23 00:04:00;;;;;;;15.07;7.25;;;;;;;15.51;65.38;99987.81;4446997;32;33830;-64
2022/10/23 00:06:29;;;;;;;14.30;7.68;;;;;;;14.96;67.04;99992.75;4445119;32;31994;-66
2022/10/23 00:08:56;;;;;;;11.70;6.93;;;;;;;15.28;65.93;99988.06;4446209;32;34026;-66
2022/10/23 00:11:27;;;;;;;12.70;7.85;;;;;;;15.27;65.74;99991.72;4444051;32;35150;-66
2022/10/23 00:13:57;;;;;;;13.40;8.13;;;;;;;15.47;64.82;99989.91;4447429;32;33587;-66
2022/10/23 00:16:25;;;;;;;11.77;7.05;;;;;;;14.87;66.72;100000.69;4449916;32;33266;-64
2022/10/23 00:18:53;;;;;;;13.25;8.07;;;;;;;14.54;68.06;100011.72;4450211;32;33624;-65
2022/10/23 00:21:20;;;;;;;8.85;6.35;;;;;;;14.06;70.14;100006.84;4444361;32;34861;-63
2022/10/23 00:23:50;;;;;;;8.52;4.93;;;;;;;15.19;65.88;100012.28;4430059;32;35077;-64
2022/10/23 00:26:17;;;;;;;9.25;6.87;;;;;;;14.77;67.21;100018.66;4447556;32;34578;-64
2022/10/23 00:28:48;;;;;;;11.73;7.18;;;;;;;15.40;64.42;100009.50;4439617;32;33582;-65
2022/10/23 00:31:16;;;;;;;13.73;6.62;;;;;;;15.53;63.84;100019.00;4445944;32;35645;-66
2022/10/23 00:33:44;;;;;;;10.65;7.70;;;;;;;15.63;62.90;100005.53;4449391;32;33882;-64
2022/10/23 00:36:13;;;;;;;8.50;5.82;;;;;;;15.71;62.42;100011.13;4444516;32;33832;-64
2022/10/23 00:38:43;;;;;;;8.35;5.60;;;;;;;15.39;63.22;100022.12;4439131;32;33899;-64
2022/10/23 00:41:36;;;;;;;10.90;4.65;;;;;;;15.57;62.31;100025.00;4437861;32;132683;-64
2022/10/23 00:44:08;;;;;;;9.57;5.80;;;;;;;15.77;61.38;100032.16;4442663;32;33486;-64
2022/10/23 00:46:36;;;;;;;11.20;6.80;;;;;;;15.73;61.21;100041.53;4444975;32;33204;-62
2022/10/23 00:49:06;;;;;;;14.50;8.10;;;;;;;15.72;60.70;100029.00;4441957;32;32782;-65
2022/10/23 00:51:44;;;;;;;9.50;7.12;;;;;;;15.52;60.61;100043.44;4443700;32;36167;-63
2022/10/23 00:54:13;;;;;;;8.45;6.07;;;;;;;15.68;60.52;100042.94;4434969;32;33928;-65
2022/10/23 00:56:58;;;;;;;11.12;6.75;;;;;;;15.21;62.17;100050.75;4436435;32;32979;-64
2022/10/23 00:59:26;;;;;;;11.57;6.40;;;;;;;15.43;61.44;100057.75;4443268;32;32688;-63
2022/10/23 01:01:54;;;;;;;9.73;6.05;;;;;;;15.56;61.03;100061.91;4427202;32;34187;-63
2022/10/23 01:04:23;;;;;;;13.15;6.60;;;;;;;14.84;63.09;100068.34;4443777;32;33563;-63
2022/10/23 01:07:21;;;;;;;9.68;6.43;;;;;;;15.45;61.48;100064.72;4447587;32;33518;-62
2022/10/23 01:10:02;;;;;;;8.50;4.95;;;;;;;15.48;61.14;100075.25;4429530;32;34016;-64
2022/10/23 01:12:44;;;;;;;12.32;7.20;;;;;;;15.28;62.11;100076.16;4436362;32;34230;-63
2022/10/23 01:15:21;;;;;;;16.45;7.93;;;;;;;14.63;64.46;100071.03;4438136;32;33976;-65
2022/10/23 01:18:03;;;;;;;8.50;5.87;;;;;;;15.24;62.24;100080.13;4438040;32;32441;-63
2022/10/23 01:20:38;;;;;;;11.30;7.40;;;;;;;14.89;63.43;100081.37;4448973;32;34145;-65
2022/10/23 01:23:10;;;;;;;7.43;6.03;;;;;;;14.96;63.31;100081.69;4438282;32;33930;-65
2022/10/23 01:25:57;;;;;;;10.88;6.32;;;;;;;14.63;64.54;100081.81;4445726;32;33938;-63
2022/10/23 01:28:29;;;;;;;13.95;6.53;;;;;;;15.17;62.41;100084.37;4438153;32;33616;-65
2022/10/23 01:30:58;;;;;;;8.00;4.28;;;;;;;15.11;62.48;100075.81;4435238;32;34666;-64
2022/10/23 01:33:38;;;;;;;8.55;5.78;;;;;;;15.04;62.48;100077.34;4441929;32;35120;-64
2022/10/23 01:36:11;;;;;;;12.95;6.97;;;;;;;15.12;62.14;100071.31;4444281;32;33868;-64
2022/10/23 01:38:44;;;;;;;12.68;7.20;;;;;;;14.99;62.39;100073.34;4431386;32;32353;-64
2022/10/23 01:41:17;;;;;;;8.40;5.37;;;;;;;15.19;61.51;100066.22;4434777;32;34742;-63
2022/10/23 01:43:52;;;;;;;10.55;6.00;;;;;;;15.09;61.63;100064.34;4434712;32;33953;-64
2022/10/23 01:46:20;;;;;;;;;;;;;;;15.21;61.22;100070.47;4436871;32;33774;-63
2022/10/23 01:48:51;;;;;;;10.20;7.43;;;;;;;15.09;61.51;100072.44;4445119;32;32012;-63
2022/10/23 01:51:21;;;;;;;18.25;7.07;;;;;;;15.12;61.43;100066.75;4437384;32;33434;-64
2022/10/23 01:53:50;;;;;;;8.30;5.37;;;;;;;15.17;61.24;100071.72;4446489;32;33390;-65
2022/10/23 01:56:30;;;;;;;13.32;8.35;;;;;;;15.22;61.06;100068.66;4434012;32;33572;-63
2022/10/23 01:59:02;;;;;;;9.45;6.32;;;;;;;15.22;61.08;100063.25;4443705;32;34953;-65
2022/10/23 02:01:32;;;;;;;7.97;5.55;;;;;;;15.29;60.88;100062.56;4432753;32;33443;-64
2022/10/23 02:04:02;;;;;;;8.15;5.60;;;;;;;15.23;61.08;100070.34;4434017;32;33995;-64
2022/10/23 02:06:30;;;;;;;14.50;5.93;;;;;;;15.25;60.77;100071.91;4444056;32;33523;-63
2022/10/23 02:08:58;;;;;;;7.10;5.32;;;;;;;15.30;60.63;100061.56;4442941;32;33290;-64
2022/10/23 02:11:26;;;;;;;8.20;6.60;;;;;;;15.31;60.72;100071.37;4446746;32;33576;-63
2022/10/23 02:14:23;;;;;;;7.10;5.25;;;;;;;15.31;60.72;100059.72;4446124;32;32485;-64
2022/10/23 02:16:58;;;;;;;9.85;5.72;;;;;;;15.44;60.14;100065.72;4426902;32;34007;-63
2022/10/23 02:19:49;;;;;;;7.82;6.15;;;;;;;15.47;59.78;100069.97;4442628;32;33492;-64
2022/10/23 02:22:36;;;;;;;11.80;6.43;;;;;;;15.43;59.68;100072.09;4434833;32;34990;-63
2022/10/23 02:25:10;;;;;;;15.45;6.50;;;;;;;15.27;60.45;100072.62;4449337;32;33433;-65
2022/10/23 02:27:46;;;;;;;10.85;6.80;;;;;;;15.38;60.20;100063.59;4446935;32;35165;-65
2022/10/23 02:30:16;;;;;;;7.32;4.78;;;;;;;15.21;60.34;100069.62;4436541;32;33467;-64
2022/10/23 02:32:49;;;;;;;12.55;8.07;;;;;;;15.35;60.16;100067.41;4438869;32;35115;-63
2022/10/23 02:35:18;;;;;;;7.47;6.32;;;;;;;15.28;60.14;100071.66;4446803;32;33092;-64
2022/10/23 02:37:57;;;;;;;10.35;6.35;;;;;;;15.32;59.71;100073.06;4444944;32;32083;-64
2022/10/23 02:40:31;;;;;;;9.88;6.07;;;;;;;15.33;59.55;100080.16;4449834;32;33191;-63
2022/10/23 02:43:13;;;;;;;8.25;5.22;;;;;;;15.35;59.53;100080.87;4447737;32;33922;-65
2022/10/23 02:46:01;;;;;;;9.07;5.82;;;;;;;15.31;59.97;100092.06;4427429;32;35005;-65
2022/10/23 02:48:38;;;;;;;10.48;6.93;;;;;;;15.25;60.29;100092.59;4440318;32;34585;-64
2022/10/23 02:51:14;;;;;;;8.43;6.25;;;;;;;15.24;60.17;100101.69;4435323;32;32171;-65
2022/10/23 02:53:53;;;;;;;;;;;;;;;15.20;60.30;100095.72;4437142;32;32567;-64
2022/10/23 02:56:33;;;;;;;9.18;6.05;;;;;;;15.19;60.33;100098.56;4436400;32;35535;-63
2022/10/23 02:59:14;;;;;;;9.25;6.97;;;;;;;15.11;60.49;100107.31;4437426;32;33785;-65
2022/10/23 03:01:50;;;;;;;7.87;5.85;;;;;;;15.15;60.41;100114.13;4446842;32;34696;-64
2022/10/23 03:04:23;;;;;;;10.85;6.03;;;;;;;15.06;60.61;100106.88;4448122;32;32854;-65
2022/10/23 03:06:50;;;;;;;7.53;5.18;;;;;;;15.10;60.43;100108.31;4435932;32;33374;-64
2022/10/23 03:09:18;;;;;;;7.50;5.10;;;;;;;15.14;60.23;100113.28;4434593;32;33875;-63
2022/10/23 03:11:45;;;;;;;8.07;6.15;;;;;;;14.99;60.62;100113.78;4447142;32;34623;-64
2022/10/23 03:14:13;;;;;;;9.35;7.22;;;;;;;15.05;60.76;100115.94;4435964;32;33841;-63
2022/10/23 03:16:40;;;;;;;6.90;4.35;;;;;;;15.03;60.85;100116.09;4434667;32;34828;-63
2022/10/23 03:19:10;;;;;;;7.25;4.78;;;;;;;15.10;60.68;100117.25;4447394;32;33632;-62
2022/10/23 03:21:40;;;;;;;8.73;6.62;;;;;;;15.16;60.35;100118.56;4448607;32;33392;-64
2022/10/23 03:24:07;;;;;;;8.25;6.28;;;;;;;15.21;60.23;100119.00;4448873;32;33746;-62
2022/10/23 03:26:36;;;;;;;7.07;5.35;;;;;;;15.11;60.68;100127.03;4448247;32;35007;-64
2022/10/23 03:29:04;;;;;;;8.23;5.62;;;;;;;15.14;60.61;100126.78;4447865;32;32783;-62
2022/10/23 03:31:35;;;;;;;8.52;5.10;;;;;;;15.20;60.46;100136.16;4449479;32;33199;-61
2022/10/23 03:34:08;;;;;;;8.98;7.18;;;;;;;15.23;60.26;100135.06;4448308;32;33651;-61
2022/10/23 03:36:37;;;;;;;7.55;5.62;;;;;;;15.22;60.16;100125.28;4448648;32;35506;-63
2022/10/23 03:39:05;;;;;;;8.75;5.53;;;;;;;15.17;60.26;100124.81;4447205;32;33583;-64
2022/10/23 03:41:32;;;;;;;13.07;7.05;;;;;;;15.25;60.05;100122.28;4447601;32;34260;-62
2022/10/23 03:44:00;;;;;;;7.82;5.12;;;;;;;15.24;59.88;100123.28;4448971;32;34150;-61
2022/10/23 03:46:27;;;;;;;9.93;6.15;;;;;;;15.25;59.62;100123.16;4448372;32;32933;-63
2022/10/23 03:48:58;;;;;;;12.27;7.18;;;;;;;15.22;59.56;100123.41;4448072;32;32818;-62
2022/10/23 03:51:25;;;;;;;9.30;6.75;;;;;;;15.21;59.30;100129.78;4447870;32;32711;-62
2022/10/23 03:53:53;;;;;;;10.23;7.07;;;;;;;15.17;59.27;100133.75;4442701;32;33893;-63
2022/10/23 03:56:21;;;;;;;11.98;7.45;;;;;;;15.13;59.27;100129.63;4445837;32;33767;-61
2022/10/23 03:58:49;;;;;;;10.95;7.22;;;;;;;14.97;59.66;100127.41;4449662;32;34033;-62
2022/10/23 04:01:16;;;;;;;9.75;6.60;;;;;;;14.86;59.67;100131.03;4449320;32;32737;-62
2022/10/23 04:03:44;;;;;;;10.10;7.18;;;;;;;14.96;59.14;100135.59;4449507;32;33614;-63
2022/10/23 04:06:12;;;;;;;14.45;7.12;;;;;;;14.91;59.25;100131.47;4449690;32;35542;-62
2022/10/23 04:08:42;;;;;;;9.88;6.43;;;;;;;14.95;59.14;100134.75;4449848;32;33341;-64
2022/10/23 04:11:10;;;;;;;17.60;5.80;;;;;;;14.96;59.13;100138.31;4450921;32;34639;-63
2022/10/23 04:13:39;;;;;;;9.85;7.20;;;;;;;14.88;59.37;100128.19;4450115;32;34973;-62
2022/10/23 04:16:06;;;;;;;10.68;7.07;;;;;;;14.91;59.40;100123.41;4449993;32;33923;-62
2022/10/23 04:18:34;;;;;;;10.60;7.00;;;;;;;14.77;60.23;100120.22;4451510;32;32876;-62
2022/10/23 04:21:02;;;;;;;7.90;4.90;;;;;;;14.80;60.43;100120.78;4450094;32;31691;-62
2022/10/23 04:23:29;;;;;;;8.32;6.07;;;;;;;14.85;60.04;100117.69;4447876;32;34884;-64
2022/10/23 04:25:57;;;;;;;11.05;6.68;;;;;;;14.62;60.43;100117.81;4445278;32;33934;-65
2022/10/23 04:28:25;;;;;;;6.78;4.82;;;;;;;14.62;60.19;100117.81;4451511;32;33655;-62
2022/10/23 04:30:53;;;;;;;8.23;5.12;;;;;;;14.56;60.18;100117.50;4449630;32;33394;-63
2022/10/23 04:33:21;;;;;;;12.27;6.85;;;;;;;14.61;59.83;100118.81;4440942;32;32805;-62
2022/10/23 04:35:48;;;;;;;7.87;4.50;;;;;;;14.68;59.40;100117.31;4442513;32;35291;-64
2022/10/23 04:38:16;;;;;;;11.68;4.20;;;;;;;14.67;59.09;100118.31;4453924;32;33892;-62
2022/10/23 04:40:44;;;;;;;12.15;5.60;;;;;;;14.65;58.96;100122.97;4453145;32;33382;-62
2022/10/23 04:43:11;;;;;;;6.18;4.20;;;;;;;14.66;58.48;100119.25;4453599;32;35012;-62
2022/10/23 04:45:39;;;;;;;8.10;4.37;;;;;;;14.62;58.71;100112.44;4450100;32;35047;-62
2022/10/23 04:48:08;;;;;;;5.57;4.25;;;;;;;14.65;58.90;100117.56;4441981;32;33937;-64
2022/10/23 04:50:37;;;;;;;8.20;4.75;;;;;;;14.71;58.65;100123.44;4451995;32;32356;-62
2022/10/23 04:53:04;;;;;;;9.45;5.93;;;;;;;14.54;59.37;100127.53;4453027;32;34078;-62
2022/10/23 04:55:33;;;;;;;5.20;3.55;;;;;;;14.70;58.86;100129.78;4451144;32;35282;-63
2022/10/23 04:58:03;;;;;;;8.32;5.47;;;;;;;14.70;58.28;100130.62;4452560;32;33908;-65
2022/10/23 05:00:31;;;;;;;5.37;4.15;;;;;;;14.74;57.96;100132.09;4446109;32;33502;-63
2022/10/23 05:03:00;;;;;;;7.12;5.28;;;;;;;14.73;57.70;100127.69;4449804;32;33556;-61
2022/10/23 05:05:29;;;;;;;6.30;4.57;;;;;;;14.79;57.34;100142.47;4441425;32;34038;-61
2022/10/23 05:07:56;;;;;;;6.80;4.82;;;;;;;14.77;57.11;100129.13;4451047;32;31373;-64
2022/10/23 05:10:25;;;;;;;7.28;4.90;;;;;;;14.79;56.78;100132.53;4453217;32;33386;-66
2022/10/23 05:12:53;;;;;;;6.12;4.70;;;;;;;14.70;56.93;100136.03;4451956;32;34606;-65
2022/10/23 05:15:20;;;;;;;9.48;5.18;;;;;;;14.75;56.74;100139.19;4447978;32;34093;-64
2022/10/23 05:17:52;;;;;;;9.43;4.12;;;;;;;14.68;56.95;100138.84;4450719;32;34830;-65
2022/10/23 05:20:22;;;;;;;11.12;6.18;;;;;;;14.70;56.63;100132.47;4450042;32;31832;-64
2022/10/23 05:22:51;;;;;;;9.02;4.70;;;;;;;14.58;57.27;100137.09;4438826;32;34819;-65
2022/10/23 05:25:19;;;;;;;11.98;5.45;;;;;;;14.61;57.35;100139.53;4452308;32;33793;-65
2022/10/23 05:27:47;;;;;;;6.15;4.30;;;;;;;14.41;58.01;100151.94;4452778;32;33970;-65
2022/10/23 05:30:15;;;;;;;7.87;4.35;;;;;;;14.46;57.49;100147.03;4453598;32;33187;-64
2022/10/23 05:32:43;;;;;;;6.65;5.28;;;;;;;14.45;57.33;100146.19;4448755;32;34357;-64
2022/10/23 05:35:15;;;;;;;5.70;3.47;;;;;;;14.42;57.39;100140.19;4445512;32;32688;-65
2022/10/23 05:37:47;;;;;;;5.28;4.10;;;;;;;14.39;57.43;100140.47;4449617;32;33764;-66
2022/10/23 05:40:16;;;;;;;7.78;5.55;;;;;;;14.04;58.87;100138.87;4452661;32;34741;-66
2022/10/23 05:42:47;;;;;;;8.07;5.32;;;;;;;14.18;59.00;100146.63;4450551;32;33831;-66
2022/10/23 05:45:15;;;;;;;8.10;4.85;;;;;;;14.41;58.33;100158.19;4453289;32;35021;-66
2022/10/23 05:47:44;;;;;;;7.57;5.25;;;;;;;14.45;58.15;100153.41;4451234;32;33824;-64
2022/10/23 05:50:12;;;;;;;7.47;4.22;;;;;;;14.37;58.52;100151.34;4444698;32;33327;-65
2022/10/23 05:52:46;;;;;;;4.82;3.67;;;;;;;14.44;58.42;100154.38;4451842;32;34058;-66
2022/10/23 05:55:15;;;;;;;9.60;6.68;;;;;;;14.37;58.52;100156.72;4450997;32;33924;-66
2022/10/23 05:57:43;;;;;;;7.00;2.83;;;;;;;14.25;58.71;100159.59;4452028;32;34677;-66
2022/10/23 06:00:12;;;;;;;6.72;4.87;;;;;;;14.32;58.59;100158.13;4451341;32;33135;-67
2022/10/23 06:02:40;;;;;;;9.40;3.90;;;;;;;14.21;58.88;100159.84;4445121;32;34915;-64
2022/10/23 06:05:08;;;;;;;7.68;5.57;;;;;;;14.06;59.37;100166.53;4446728;32;32648;-64
2022/10/23 06:07:38;;;;;;;6.30;4.70;;;;;;;14.06;59.47;100173.72;4447007;32;33064;-67
2022/10/23 06:10:06;;;;;;;8.93;4.72;;;;;;;14.23;58.84;100169.66;4452865;32;32767;-65
2022/10/23 06:12:33;;;;;;;9.95;5.40;;;;;;;14.28;59.07;100172.81;4452036;32;34906;-64
2022/10/23 06:15:01;;;;;;;7.03;4.30;;;;;;;14.39;59.12;100170.94;4451487;32;33630;-66
2022/10/23 06:17:30;;;;;;;8.60;5.12;;;;;;;14.52;58.79;100159.16;4452105;32;33746;-65
2022/10/23 06:20:01;;;;;;;9.85;5.37;;;;;;;14.59;59.03;100171.97;4443940;32;34698;-64
2022/10/23 06:22:29;;;;;;;8.52;6.50;;;;;;;14.57;59.68;100173.94;4440951;32;32590;-65
2022/10/23 06:24:58;;;;;;;12.85;7.15;;;;;;;14.68;60.00;100170.34;4452845;32;35345;-64
2022/10/23 06:27:26;;;;;;;7.72;5.70;;;;;;;14.79;59.72;100170.25;4449296;32;34125;-64
2022/10/23 06:29:54;;;;;;;9.35;4.72;;;;;;;14.90;59.77;100172.91;4449758;32;33506;-63
2022/10/23 06:32:22;;;;;;;9.25;5.50;;;;;;;14.97;60.15;100189.41;4449213;32;32414;-64
2022/10/23 06:34:51;;;;;;;6.87;4.97;;;;;;;14.96;60.40;100198.47;4444842;32;32428;-63
2022/10/23 06:37:20;;;;;;;7.37;5.32;;;;;;;14.95;60.71;100207.53;4452534;32;35052;-64
2022/10/23 06:39:48;;;;;;;8.63;5.28;;;;;;;15.09;60.45;100204.53;4438311;32;32895;-63
2022/10/23 06:42:16;;;;;;;9.57;5.15;;;;;;;15.21;60.18;100207.97;4452007;32;33494;-64
2022/10/23 06:44:47;;;;;;;6.72;5.57;;;;;;;15.29;60.25;100216.28;4447027;32;33126;-65
2022/10/23 06:47:16;;;;;;;17.37;6.72;;;;;;;15.41;60.25;100219.75;4453123;32;35005;-63
2022/10/23 06:49:53;;;;;;;7.10;4.97;;;;;;;15.50;60.42;100215.38;4440066;32;33190;-65
2022/10/23 06:52:21;;;;;;;7.18;4.20;;;;;;;15.61;60.44;100212.59;4448518;32;32687;-65
2022/10/23 06:55:10;;;;;;;7.47;5.00;;;;;;;15.74;60.51;100215.94;4443374;32;33451;-64
2022/10/23 06:57:37;;;;;;;13.10;7.82;;;;;;;15.70;61.44;100214.50;4440549;32;34681;-64
2022/10/23 07:00:06;;;;;;;10.32;7.25;;;;;;;15.87;61.16;100212.16;4451630;32;32078;-65
2022/10/23 07:02:35;;;;;;;8.48;6.57;;;;;;;16.01;60.85;100219.84;4452006;32;33125;-65
2022/10/23 07:05:03;;;;;;;8.93;4.82;;;;;;;16.07;60.93;100222.00;4443073;32;32836;-65
2022/10/23 07:07:35;;;;;;;8.05;5.22;;;;;;;16.14;61.01;100219.59;4451465;32;35679;-64
2022/10/23 07:10:04;;;;;;;10.07;5.60;;;;;;;16.16;61.28;100223.87;4451352;32;32720;-64
2022/10/23 07:12:33;;;;;;;8.77;5.25;;;;;;;16.30;61.29;100220.75;4452444;32;32761;-64
2022/10/23 07:15:04;;;;;;;13.60;6.45;;;;;;;16.41;61.48;100225.22;4451168;32;35313;-64
2022/10/23 07:17:32;;;;;;;6.60;5.80;;;;;;;16.47;61.84;100218.38;4449280;32;32906;-65
2022/10/23 07:20:00;;;;;;;13.45;6.12;;;;;;;16.53;62.35;100221.38;4447894;32;33312;-64
2022/10/23 07:22:28;;;;;;;8.63;5.87;;;;;;;16.59;62.40;100225.34;4438452;32;33205;-65
2022/10/23 07:24:59;;;;;;;6.90;4.78;;;;;;;16.65;62.93;100222.06;4444282;32;33640;-63
2022/10/23 07:27:27;;;;;;;7.60;4.22;;;;;;;16.94;62.31;100221.25;4437107;32;33601;-66
2022/10/23 07:29:55;;;;;;;9.88;5.28;;;;;;;16.62;62.85;100235.03;4448384;32;33283;-65
2022/10/23 07:32:23;;;;;;;9.73;6.70;;;;;;;16.63;62.73;100226.78;4451789;32;32528;-67
2022/10/23 07:34:54;;;;;;;7.07;4.90;;;;;;;16.84;61.96;100226.66;4452058;32;33974;-65
2022/10/23 07:37:22;;;;;;;8.52;6.35;;;;;;;16.69;62.78;100223.53;4454392;32;33766;-64
2022/10/23 07:39:50;;;;;;;8.63;4.97;;;;;;;16.41;63.52;100213.56;4430550;32;31603;-64
2022/10/23 07:42:17;;;;;;;10.40;5.37;;;;;;;16.67;62.67;100213.84;4445500;32;33006;-65
2022/10/23 07:44:45;;;;;;;9.48;5.45;;;;;;;16.92;61.88;100210.59;4451195;32;34866;-65
2022/10/23 07:47:13;;;;;;;15.32;7.35;;;;;;;16.96;61.98;100214.69;4452071;32;32580;-65
2022/10/23 07:49:41;;;;;;;10.98;5.65;;;;;;;16.86;62.37;100223.81;4452268;32;32278;-65
2022/10/23 07:52:09;;;;;;;9.73;6.40;;;;;;;17.30;61.00;100221.47;4452063;32;33771;-67
2022/10/23 07:54:37;;;;;;;7.50;5.45;;;;;;;17.17;61.33;100222.66;4447834;32;33873;-64
2022/10/23 07:57:06;;;;;;;6.90;5.62;;;;;;;16.71;62.36;100217.97;4451364;32;33783;-65
2022/10/23 07:59:34;;;;;;;10.10;5.80;;;;;;;16.86;62.65;100208.44;4434394;32;33603;-65
2022/10/23 08:02:10;;;;;;;10.60;4.35;;;;;;;17.40;60.96;100214.19;4438215;32;33237;-65
2022/10/23 08:04:38;;;;;;;10.45;5.68;;;;;;;17.29;61.31;100212.50;4447669;32;34436;-64
2022/10/23 08:07:06;;;;;;;9.77;5.70;;;;;;;17.41;60.87;100211.31;4452663;32;34175;-64
2022/10/23 08:09:36;;;;;;;6.47;4.12;;;;;;;17.64;60.33;100200.97;4452816;32;32414;-64
2022/10/23 08:12:05;;;;;;;5.85;3.92;;;;;;;17.65;60.76;100196.41;4453337;32;34764;-64
2022/10/23 08:14:32;;;;;;;7.62;4.43;;;;;;;17.98;59.74;100202.25;4433976;32;34024;-65
2022/10/23 08:17:00;;;;;;;8.10;3.17;;;;;;;17.89;60.29;100206.75;4452161;32;33810;-66
2022/10/23 08:19:30;;;;;;;7.28;3.53;;;;;;;18.18;59.44;100208.44;4452888;32;32600;-64
2022/10/23 08:21:58;;;;;;;9.80;5.80;;;;;;;18.33;58.63;100201.47;4453662;32;34977;-64
2022/10/23 08:24:25;;;;;;;5.35;3.20;;;;;;;18.52;58.49;100203.19;4441547;32;32997;-64
2022/10/23 08:26:53;;;;;;;8.80;5.03;;;;;;;18.63;58.21;100202.97;4452400;32;33919;-65
2022/10/23 08:29:21;;;;;;;7.00;4.40;;;;;;;18.65;57.75;100190.13;4451053;32;34262;-64
2022/10/23 08:31:52;;;;;;;7.12;3.33;;;;;;;18.98;57.26;100193.97;4451118;32;32202;-64
2022/10/23 08:34:21;;;;;;;5.40;4.12;;;;;;;19.10;56.32;100205.41;4446290;32;34893;-64
2022/10/23 08:36:49;;;;;;;7.55;4.07;;;;;;;19.11;55.93;100208.97;4449943;32;32717;-66
2022/10/23 08:39:17;;;;;;;10.70;3.97;;;;;;;19.23;55.47;100207.69;4450314;32;33348;-65
2022/10/23 08:41:50;;;;;;;8.27;4.03;;;;;;;18.90;56.41;100210.16;4451576;32;33989;-65
2022/10/23 08:44:21;;;;;;;8.32;5.28;;;;;;;19.06;56.39;100201.31;4447444;32;35011;-65
2022/10/23 08:47:01;;;;;;;8.85;5.72;;;;;;;19.30;55.97;100200.63;4452289;32;32367;-65
2022/10/23 08:49:48;;;;;;;7.50;4.30;;;;;;;19.22;56.76;100187.84;4450093;32;33316;-64
2022/10/23 08:52:29;;;;;;;7.32;4.12;;;;;;;19.34;57.08;100185.72;4439257;32;32795;-65
2022/10/23 08:55:11;;;;;;;10.35;5.82;;;;;;;19.53;56.28;100190.06;4433493;32;34194;-65
2022/10/23 08:57:46;;;;;;;6.78;4.70;;;;;;;19.29;57.08;100186.22;4441979;32;33776;-65
2022/10/23 09:00:15;;;;;;;7.75;4.55;;;;;;;19.66;56.61;100190.50;4452769;32;33371;-67
2022/10/23 09:02:49;;;;;;;7.62;5.05;;;;;;;19.61;57.02;100190.09;4443439;32;33445;-64
2022/10/23 09:05:18;;;;;;;7.43;4.90;;;;;;;19.74;56.38;100189.69;4451308;32;34187;-66
2022/10/23 09:08:11;;;;;;;8.55;5.62;;;;;;;19.82;56.33;100195.16;4439328;32;33785;-66
2022/10/23 09:11:29;;;;;;;8.15;5.72;;;;;;;19.61;56.75;100192.81;4444088;32;33085;-67
2022/10/23 09:14:25;;;;;;;14.48;6.45;;;;;;;19.75;56.29;100191.41;4399173;32;33515;-65
2022/10/23 09:17:17;;;;;;;10.18;5.57;;;;;;;19.53;56.87;100195.50;4449027;32;32855;-65
2022/10/23 09:19:45;;;;;;;8.73;5.60;;;;;;;19.90;56.23;100194.34;4451971;32;33833;-67
2022/10/23 09:22:13;;;;;;;8.80;6.72;;;;;;;20.01;56.39;100202.19;4450575;32;34242;-65
2022/10/23 09:24:43;;;;;;;8.75;6.18;;;;;;;19.70;57.50;100210.03;4448507;32;33569;-66
2022/10/23 09:27:15;;;;;;;12.98;7.68;;;;;;;19.00;58.95;100208.19;4435031;32;34099;-65
2022/10/23 09:29:52;;;;;;;13.60;7.20;;;;;;;19.55;57.32;100215.22;4452350;32;33729;-66
2022/10/23 09:32:32;;;;;;;11.20;6.22;;;;;;;19.47;58.07;100207.84;4425792;32;33377;-67
2022/10/23 09:34:59;;;;;;;9.50;6.93;;;;;;;19.76;56.54;100215.66;4449575;32;34790;-66
2022/10/23 09:37:29;;;;;;;11.95;5.78;;;;;;;19.26;57.65;100213.69;4451995;32;32712;-65
2022/10/23 09:40:17;;;;;;;9.82;5.03;;;;;;;18.94;57.55;100217.00;4451130;32;33968;-67
2022/10/23 09:42:54;;;;;;;8.98;5.30;;;;;;;19.38;57.17;100207.97;4451253;32;32320;-67
2022/10/23 09:45:24;;;;;;;10.10;6.10;;;;;;;19.71;56.40;100211.72;4443174;32;34373;-64
2022/10/23 09:48:18;;;;;;;8.23;5.70;;;;;;;19.75;55.80;100215.84;4449742;32;32672;-66
2022/10/23 09:51:00;;;;;;;8.40;5.60;;;;;;;19.16;55.92;100210.19;4450319;32;34100;-66
2022/10/23 09:53:39;;;;;;;8.60;4.90;;;;;;;19.74;55.83;100208.69;4452199;32;32439;-66
2022/10/23 09:56:24;;;;;;;6.93;4.40;;;;;;;19.51;56.88;100216.53;4435566;32;34081;-65
2022/10/23 09:58:55;;;;;;;6.53;4.75;;;;;;;19.45;55.27;100206.31;4451898;32;32823;-67
2022/10/23 10:01:29;;;;;;;7.50;4.68;;;;;;;19.43;56.40;100206.47;4447493;32;32661;-67
2022/10/23 10:03:59;;;;;;;7.12;4.47;;;;;;;19.55;55.74;100209.78;4446247;32;33474;-65
2022/10/23 10:06:29;;;;;;;7.62;4.60;;;;;;;19.66;56.57;100205.97;4451652;32;32650;-65
2022/10/23 10:09:04;;;;;;;9.52;4.72;;;;;;;19.57;55.53;100209.59;4451795;32;33940;-65
2022/10/23 10:11:38;;;;;;;9.43;4.87;;;;;;;19.33;56.19;100213.03;4444650;32;33892;-65
2022/10/23 10:14:11;;;;;;;8.27;5.72;;;;;;;19.21;57.96;100205.16;4453032;32;33084;-66
2022/10/23 10:16:57;;;;;;;8.38;4.37;;;;;;;19.43;56.08;100208.34;4442508;32;32328;-66
2022/10/23 10:19:27;;;;;;;8.85;5.35;;;;;;;19.06;56.15;100204.00;4432690;32;34205;-65
2022/10/23 10:22:08;;;;;;;7.65;4.72;;;;;;;18.97;58.16;100204.97;4444348;32;33896;-67
2022/10/23 10:25:22;;;;;;;7.32;4.55;;;;;;;18.71;58.98;100200.31;4446868;32;34557;-65
2022/10/23 10:28:12;;;;;;;6.95;5.47;;;;;;;18.87;58.67;100187.94;4404177;32;34417;-66
2022/10/23 10:30:50;;;;;;;6.07;3.80;;;;;;;18.20;60.52;100196.41;4443238;32;33764;-66
2022/10/23 10:33:29;;;;;;;6.50;4.93;;;;;;;18.53;59.78;100185.94;4433680;32;33382;-66
2022/10/23 10:36:03;;;;;;;6.55;4.22;;;;;;;18.97;58.47;100188.69;4451662;32;34630;-65
2022/10/23 10:38:49;;;;;;;11.67;5.77;;;;;;;18.63;59.53;100184.81;4448412;32;32510;-66
2022/10/23 10:41:54;;;;;;;8.32;5.50;;;;;;;18.81;60.20;100183.97;4446744;32;32812;-65
2022/10/23 10:44:31;;;;;;;10.52;5.53;;;;;;;18.55;60.84;100178.47;4435294;32;34645;-65
2022/10/23 10:47:28;;;;;;;12.98;6.82;;;;;;;19.06;59.28;100182.31;4448693;32;33666;-65
2022/10/23 10:50:18;;;;;;;13.52;8.13;;;;;;;19.18;57.52;100172.06;4438177;32;32701;-65
2022/10/23 10:53:01;;;;;;;17.45;10.27;;;;;;;19.05;58.69;100148.91;4427309;32;34082;-65
2022/10/23 10:55:33;;;;;;;18.37;13.62;;;;;;;19.07;59.28;100157.75;4444610;32;33575;-66
2022/10/23 10:58:10;;;;;;;24.80;15.05;;;;;;;19.11;58.60;100158.28;4450907;32;32118;-66
2022/10/23 11:00:37;;;;;;;18.25;12.18;;;;;;;19.44;57.67;100148.44;4444382;32;32805;-66
2022/10/23 11:03:43;;;;;;;26.27;16.50;;;;;;;19.59;57.09;100140.56;4443112;32;32626;-65
2022/10/23 11:06:15;;;;;;;32.45;18.20;;;;;;;19.17;58.53;100137.81;4449659;32;33179;-66
2022/10/23 11:08:42;;;;;;;37.25;20.58;;;;;;;19.18;58.51;100128.66;4442028;32;33694;-66
2022/10/23 11:11:34;;;;;;;23.30;13.82;;;;;;;19.23;58.34;100129.00;4447078;32;34951;-68
2022/10/23 11:14:01;;;;;;;34.42;18.15;;;;;;;19.34;58.50;100125.16;4436458;32;32131;-68
2022/10/23 11:16:38;;;;;;;35.20;22.65;;;;;;;19.04;59.00;100130.09;4452138;32;34939;-66
2022/10/23 11:19:15;;;;;;;32.28;20.50;;;;;;;19.40;58.05;100132.66;4432062;32;34478;-66
2022/10/23 11:22:04;;;;;;;31.83;19.95;;;;;;;18.88;59.90;100125.41;4447805;32;33736;-66
2022/10/23 11:24:56;;;;;;;34.05;20.50;;;;;;;19.54;58.13;100126.59;4436670;32;32483;-68
2022/10/23 11:27:31;;;;;;;34.22;14.27;;;;;;;19.52;58.28;100131.38;4447069;32;33996;-66
2022/10/23 11:30:11;;;;;;;31.95;18.67;;;;;;;19.39;58.77;100136.38;4449019;32;33162;-65
2022/10/23 11:32:58;;;;;;;23.95;13.75;;;;;;;19.41;58.58;100137.91;4446611;32;34276;-65
2022/10/23 11:35:44;;;;;;;21.87;15.65;;;;;;;19.41;58.67;100142.50;4434784;32;32622;-66
2022/10/23 11:38:11;;;;;;;27.90;15.93;;;;;;;19.55;58.50;100134.59;4449871;32;35078;-66
2022/10/23 11:40:44;;;;;;;27.90;13.73;;;;;;;19.26;58.70;100136.81;4447234;32;33643;-65
2022/10/23 11:43:12;;;;;;;17.60;10.55;;;;;;;19.28;59.45;100134.81;4447019;32;34119;-65
2022/10/23 11:45:41;;;;;;;18.05;10.75;;;;;;;19.10;58.53;100134.88;4450344;32;35179;-67
2022/10/23 11:48:34;;;;;;;19.60;10.27;;;;;;;19.26;59.21;100132.25;4443438;32;34883;-66